Delta, Utah
Current Conditions -  °F | °C
As of 4:55 PM on Saturday 25 Oct 2014 (Local Time) from KDTA Reporting Station
Clear Clear  
Wind Chill: 73°   Ceiling: Unl
Heat Index: 73°   Visibility: 10mi
Dew Point: 34°   Wind: 21mph
Humidity: 24%   Direction: 210°SSW
Pressure: 30.02"   Gusts: 31mph
Location:  39.35°N, 112.58°W
Report Text: KDTA 252255Z AUTO 21018G27KT 10SM CLR 23/01 A3002 RMK AO1 T02270013
Loading
Personal Weather Stations






























Interactive Weather Map
Tropical Storm Tracking
New forecast layout! Learn more

10-Day Weather Forecast

Advertisements
Track Severe Weather on mobile